sensor_id;sensor_type;location;lat;lon;timestamp;P1;durP1;ratioP1;P2;durP2;ratioP2
51724;SDS011;37801;53.224;6.552;2022-09-09T00:04:43;11.38;;;10.07;;
51724;SDS011;37801;53.224;6.552;2022-09-09T00:07:52;14.60;;;10.32;;
51724;SDS011;37801;53.224;6.552;2022-09-09T00:10:28;14.15;;;10.95;;
51724;SDS011;37801;53.224;6.552;2022-09-09T00:18:46;13.68;;;10.70;;
51724;SDS011;37801;53.224;6.552;2022-09-09T00:21:36;13.77;;;11.00;;
51724;SDS011;37801;53.224;6.552;2022-09-09T00:24:08;13.73;;;10.30;;
51724;SDS011;37801;53.224;6.552;2022-09-09T00:26:47;15.80;;;11.07;;
51724;SDS011;37801;53.224;6.552;2022-09-09T00:32:00;14.73;;;11.80;;
51724;SDS011;37801;53.224;6.552;2022-09-09T00:34:36;15.40;;;11.00;;
51724;SDS011;37801;53.224;6.552;2022-09-09T00:37:28;17.77;;;12.00;;
51724;SDS011;37801;53.224;6.552;2022-09-09T00:39:57;14.98;;;11.75;;
51724;SDS011;37801;53.224;6.552;2022-09-09T00:42:41;14.32;;;11.57;;
51724;SDS011;37801;53.224;6.552;2022-09-09T00:47:53;15.10;;;11.63;;
51724;SDS011;37801;53.224;6.552;2022-09-09T00:53:38;17.23;;;13.10;;
51724;SDS011;37801;53.224;6.552;2022-09-09T00:56:22;14.82;;;11.95;;
51724;SDS011;37801;53.224;6.552;2022-09-09T00:59:02;17.08;;;12.05;;
51724;SDS011;37801;53.224;6.552;2022-09-09T01:01:40;14.85;;;11.60;;
51724;SDS011;37801;53.224;6.552;2022-09-09T01:04:09;15.23;;;11.35;;
51724;SDS011;37801;53.224;6.552;2022-09-09T01:06:41;13.32;;;11.25;;
51724;SDS011;37801;53.224;6.552;2022-09-09T01:09:18;15.65;;;11.57;;
51724;SDS011;37801;53.224;6.552;2022-09-09T01:17:49;13.00;;;10.77;;
51724;SDS011;37801;53.224;6.552;2022-09-09T01:20:26;12.32;;;10.25;;
51724;SDS011;37801;53.224;6.552;2022-09-09T01:23:08;15.48;;;11.32;;
51724;SDS011;37801;53.224;6.552;2022-09-09T01:26:02;14.63;;;11.35;;
51724;SDS011;37801;53.224;6.552;2022-09-09T01:28:42;15.52;;;11.02;;
51724;SDS011;37801;53.224;6.552;2022-09-09T01:31:11;14.98;;;11.40;;
51724;SDS011;37801;53.224;6.552;2022-09-09T01:33:52;14.68;;;11.30;;
51724;SDS011;37801;53.224;6.552;2022-09-09T01:36:20;15.15;;;11.82;;
51724;SDS011;37801;53.224;6.552;2022-09-09T01:39:09;13.48;;;11.63;;
51724;SDS011;37801;53.224;6.552;2022-09-09T01:41:36;15.15;;;11.43;;
51724;SDS011;37801;53.224;6.552;2022-09-09T01:44:02;13.43;;;10.95;;
51724;SDS011;37801;53.224;6.552;2022-09-09T01:46:28;15.32;;;10.30;;
51724;SDS011;37801;53.224;6.552;2022-09-09T01:48:54;14.07;;;10.20;;
51724;SDS011;37801;53.224;6.552;2022-09-09T01:51:21;19.30;;;10.90;;
51724;SDS011;37801;53.224;6.552;2022-09-09T01:53:47;13.57;;;11.15;;
51724;SDS011;37801;53.224;6.552;2022-09-09T02:04:54;14.90;;;10.57;;
51724;SDS011;37801;53.224;6.552;2022-09-09T02:07:38;15.02;;;10.73;;
51724;SDS011;37801;53.224;6.552;2022-09-09T02:10:13;16.17;;;11.93;;
51724;SDS011;37801;53.224;6.552;2022-09-09T02:15:17;17.63;;;11.25;;
51724;SDS011;37801;53.224;6.552;2022-09-09T02:18:08;19.98;;;12.15;;
51724;SDS011;37801;53.224;6.552;2022-09-09T02:20:37;15.07;;;12.55;;
51724;SDS011;37801;53.224;6.552;2022-09-09T02:23:04;18.80;;;12.98;;
51724;SDS011;37801;53.224;6.552;2022-09-09T02:25:32;19.35;;;13.85;;
51724;SDS011;37801;53.224;6.552;2022-09-09T02:27:59;15.88;;;12.77;;
51724;SDS011;37801;53.224;6.552;2022-09-09T02:30:27;19.67;;;13.85;;
51724;SDS011;37801;53.224;6.552;2022-09-09T02:32:57;17.50;;;13.90;;
51724;SDS011;37801;53.224;6.552;2022-09-09T02:35:26;18.20;;;13.95;;
51724;SDS011;37801;53.224;6.552;2022-09-09T02:37:56;19.90;;;14.13;;
51724;SDS011;37801;53.224;6.552;2022-09-09T02:40:26;20.58;;;14.18;;
51724;SDS011;37801;53.224;6.552;2022-09-09T02:42:53;21.52;;;14.73;;
51724;SDS011;37801;53.224;6.552;2022-09-09T02:45:20;20.08;;;14.20;;
51724;SDS011;37801;53.224;6.552;2022-09-09T02:47:51;18.90;;;14.35;;
51724;SDS011;37801;53.224;6.552;2022-09-09T02:53:47;17.98;;;13.18;;
51724;SDS011;37801;53.224;6.552;2022-09-09T02:56:46;17.60;;;13.27;;
51724;SDS011;37801;53.224;6.552;2022-09-09T02:59:18;18.58;;;13.68;;
51724;SDS011;37801;53.224;6.552;2022-09-09T03:01:44;16.95;;;13.88;;
51724;SDS011;37801;53.224;6.552;2022-09-09T03:04:10;18.00;;;13.43;;
51724;SDS011;37801;53.224;6.552;2022-09-09T03:06:35;18.60;;;13.60;;
51724;SDS011;37801;53.224;6.552;2022-09-09T03:09:01;21.13;;;14.90;;
51724;SDS011;37801;53.224;6.552;2022-09-09T03:11:27;19.25;;;13.85;;
51724;SDS011;37801;53.224;6.552;2022-09-09T03:13:54;17.88;;;13.43;;
51724;SDS011;37801;53.224;6.552;2022-09-09T03:16:21;17.05;;;13.82;;
51724;SDS011;37801;53.224;6.552;2022-09-09T03:18:48;18.15;;;13.10;;
51724;SDS011;37801;53.224;6.552;2022-09-09T03:21:14;18.52;;;13.48;;
51724;SDS011;37801;53.224;6.552;2022-09-09T03:23:40;15.90;;;13.02;;
51724;SDS011;37801;53.224;6.552;2022-09-09T03:26:05;16.48;;;13.02;;
51724;SDS011;37801;53.224;6.552;2022-09-09T03:28:31;18.60;;;12.65;;
51724;SDS011;37801;53.224;6.552;2022-09-09T03:31:04;16.70;;;12.90;;
51724;SDS011;37801;53.224;6.552;2022-09-09T03:33:31;17.70;;;12.13;;
51724;SDS011;37801;53.224;6.552;2022-09-09T03:35:57;15.50;;;12.18;;
51724;SDS011;37801;53.224;6.552;2022-09-09T03:38:23;17.35;;;12.00;;
51724;SDS011;37801;53.224;6.552;2022-09-09T03:40:53;14.70;;;11.40;;
51724;SDS011;37801;53.224;6.552;2022-09-09T03:43:21;16.65;;;11.57;;
51724;SDS011;37801;53.224;6.552;2022-09-09T03:45:47;16.33;;;11.23;;
51724;SDS011;37801;53.224;6.552;2022-09-09T03:48:13;14.75;;;11.43;;
51724;SDS011;37801;53.224;6.552;2022-09-09T03:50:46;15.15;;;10.60;;
51724;SDS011;37801;53.224;6.552;2022-09-09T03:53:14;16.40;;;10.23;;
51724;SDS011;37801;53.224;6.552;2022-09-09T03:55:44;12.18;;;9.25;;
51724;SDS011;37801;53.224;6.552;2022-09-09T03:58:11;12.18;;;8.80;;
51724;SDS011;37801;53.224;6.552;2022-09-09T04:00:38;10.70;;;7.95;;
51724;SDS011;37801;53.224;6.552;2022-09-09T04:03:07;13.85;;;7.95;;
51724;SDS011;37801;53.224;6.552;2022-09-09T04:05:34;10.60;;;7.63;;
51724;SDS011;37801;53.224;6.552;2022-09-09T04:08:00;10.40;;;6.93;;
51724;SDS011;37801;53.224;6.552;2022-09-09T04:10:26;9.13;;;6.32;;
51724;SDS011;37801;53.224;6.552;2022-09-09T04:12:51;8.55;;;6.00;;
51724;SDS011;37801;53.224;6.552;2022-09-09T04:15:17;10.00;;;6.30;;
51724;SDS011;37801;53.224;6.552;2022-09-09T04:17:43;7.80;;;5.50;;
51724;SDS011;37801;53.224;6.552;2022-09-09T04:20:09;11.10;;;5.47;;
51724;SDS011;37801;53.224;6.552;2022-09-09T04:22:37;8.95;;;5.70;;
51724;SDS011;37801;53.224;6.552;2022-09-09T04:25:04;9.25;;;5.22;;
51724;SDS011;37801;53.224;6.552;2022-09-09T04:27:31;7.65;;;5.10;;
51724;SDS011;37801;53.224;6.552;2022-09-09T04:29:57;8.50;;;5.38;;
51724;SDS011;37801;53.224;6.552;2022-09-09T04:32:23;11.23;;;5.30;;
51724;SDS011;37801;53.224;6.552;2022-09-09T04:34:51;8.55;;;5.15;;
51724;SDS011;37801;53.224;6.552;2022-09-09T04:37:17;7.78;;;5.00;;
51724;SDS011;37801;53.224;6.552;2022-09-09T04:39:43;8.65;;;5.20;;
51724;SDS011;37801;53.224;6.552;2022-09-09T04:42:09;9.45;;;5.65;;
51724;SDS011;37801;53.224;6.552;2022-09-09T04:44:35;7.53;;;5.20;;
51724;SDS011;37801;53.224;6.552;2022-09-09T04:47:01;9.63;;;5.40;;
51724;SDS011;37801;53.224;6.552;2022-09-09T04:49:27;8.63;;;5.47;;
51724;SDS011;37801;53.224;6.552;2022-09-09T04:51:52;8.43;;;5.75;;
51724;SDS011;37801;53.224;6.552;2022-09-09T04:54:18;8.75;;;6.28;;
51724;SDS011;37801;53.224;6.552;2022-09-09T04:56:44;8.90;;;6.40;;
51724;SDS011;37801;53.224;6.552;2022-09-09T04:59:09;9.23;;;6.25;;
51724;SDS011;37801;53.224;6.552;2022-09-09T05:01:35;10.30;;;6.95;;
51724;SDS011;37801;53.224;6.552;2022-09-09T05:04:01;9.43;;;6.45;;
51724;SDS011;37801;53.224;6.552;2022-09-09T05:06:27;10.13;;;7.13;;
51724;SDS011;37801;53.224;6.552;2022-09-09T05:08:56;10.13;;;6.65;;
51724;SDS011;37801;53.224;6.552;2022-09-09T05:11:27;10.18;;;7.55;;
51724;SDS011;37801;53.224;6.552;2022-09-09T05:13:55;9.75;;;7.50;;
51724;SDS011;37801;53.224;6.552;2022-09-09T05:16:22;10.55;;;7.35;;
51724;SDS011;37801;53.224;6.552;2022-09-09T05:18:48;10.63;;;8.05;;
51724;SDS011;37801;53.224;6.552;2022-09-09T05:21:16;11.45;;;8.07;;
51724;SDS011;37801;53.224;6.552;2022-09-09T05:23:42;12.10;;;7.75;;
51724;SDS011;37801;53.224;6.552;2022-09-09T05:26:11;12.07;;;8.68;;
51724;SDS011;37801;53.224;6.552;2022-09-09T05:28:38;11.05;;;8.82;;
51724;SDS011;37801;53.224;6.552;2022-09-09T05:31:05;11.05;;;8.52;;
51724;SDS011;37801;53.224;6.552;2022-09-09T05:33:37;13.68;;;9.35;;
51724;SDS011;37801;53.224;6.552;2022-09-09T05:36:15;12.77;;;8.95;;
51724;SDS011;37801;53.224;6.552;2022-09-09T05:38:43;13.98;;;9.02;;
51724;SDS011;37801;53.224;6.552;2022-09-09T05:41:09;13.05;;;9.35;;
51724;SDS011;37801;53.224;6.552;2022-09-09T05:43:36;16.73;;;10.93;;
51724;SDS011;37801;53.224;6.552;2022-09-09T05:46:03;15.38;;;10.88;;
51724;SDS011;37801;53.224;6.552;2022-09-09T05:48:34;14.98;;;10.15;;
51724;SDS011;37801;53.224;6.552;2022-09-09T05:51:02;18.23;;;11.30;;
51724;SDS011;37801;53.224;6.552;2022-09-09T05:53:29;15.68;;;10.88;;
51724;SDS011;37801;53.224;6.552;2022-09-09T05:56:00;16.30;;;11.43;;
51724;SDS011;37801;53.224;6.552;2022-09-09T05:58:28;17.20;;;11.82;;
51724;SDS011;37801;53.224;6.552;2022-09-09T06:01:02;16.15;;;11.07;;
51724;SDS011;37801;53.224;6.552;2022-09-09T06:03:29;15.85;;;11.40;;
51724;SDS011;37801;53.224;6.552;2022-09-09T06:06:03;19.45;;;13.30;;
51724;SDS011;37801;53.224;6.552;2022-09-09T06:08:31;18.02;;;12.77;;
51724;SDS011;37801;53.224;6.552;2022-09-09T06:11:01;18.35;;;13.20;;
51724;SDS011;37801;53.224;6.552;2022-09-09T06:13:32;17.58;;;12.68;;
51724;SDS011;37801;53.224;6.552;2022-09-09T06:15:58;17.55;;;11.77;;
51724;SDS011;37801;53.224;6.552;2022-09-09T06:18:27;19.13;;;12.63;;
51724;SDS011;37801;53.224;6.552;2022-09-09T06:21:03;21.00;;;13.20;;
51724;SDS011;37801;53.224;6.552;2022-09-09T06:23:31;21.95;;;13.48;;
51724;SDS011;37801;53.224;6.552;2022-09-09T06:26:19;17.58;;;13.07;;
51724;SDS011;37801;53.224;6.552;2022-09-09T06:28:48;18.60;;;12.77;;
51724;SDS011;37801;53.224;6.552;2022-09-09T06:31:15;17.77;;;12.27;;
51724;SDS011;37801;53.224;6.552;2022-09-09T06:33:46;18.45;;;12.55;;
51724;SDS011;37801;53.224;6.552;2022-09-09T06:36:18;17.67;;;12.32;;
51724;SDS011;37801;53.224;6.552;2022-09-09T06:38:45;19.20;;;12.68;;
51724;SDS011;37801;53.224;6.552;2022-09-09T06:41:12;15.75;;;12.07;;
51724;SDS011;37801;53.224;6.552;2022-09-09T06:43:40;17.25;;;12.35;;
51724;SDS011;37801;53.224;6.552;2022-09-09T06:46:06;20.92;;;12.57;;
51724;SDS011;37801;53.224;6.552;2022-09-09T06:48:35;18.10;;;13.00;;
51724;SDS011;37801;53.224;6.552;2022-09-09T06:51:09;16.15;;;11.52;;
51724;SDS011;37801;53.224;6.552;2022-09-09T06:53:36;19.05;;;12.38;;
51724;SDS011;37801;53.224;6.552;2022-09-09T06:58:44;21.40;;;13.15;;
51724;SDS011;37801;53.224;6.552;2022-09-09T07:01:11;18.50;;;12.75;;
51724;SDS011;37801;53.224;6.552;2022-09-09T07:03:39;17.70;;;12.75;;
51724;SDS011;37801;53.224;6.552;2022-09-09T07:06:05;19.65;;;12.65;;
51724;SDS011;37801;53.224;6.552;2022-09-09T07:08:32;18.98;;;13.48;;
51724;SDS011;37801;53.224;6.552;2022-09-09T07:11:03;18.23;;;13.00;;
51724;SDS011;37801;53.224;6.552;2022-09-09T07:13:32;21.02;;;13.13;;
51724;SDS011;37801;53.224;6.552;2022-09-09T07:18:31;19.33;;;12.52;;
51724;SDS011;37801;53.224;6.552;2022-09-09T07:20:56;19.90;;;13.68;;
51724;SDS011;37801;53.224;6.552;2022-09-09T07:23:22;21.13;;;13.10;;
51724;SDS011;37801;53.224;6.552;2022-09-09T07:25:49;20.85;;;12.57;;
51724;SDS011;37801;53.224;6.552;2022-09-09T07:28:15;19.58;;;12.68;;
51724;SDS011;37801;53.224;6.552;2022-09-09T07:30:42;21.58;;;12.43;;
51724;SDS011;37801;53.224;6.552;2022-09-09T07:33:08;18.42;;;12.30;;
51724;SDS011;37801;53.224;6.552;2022-09-09T07:35:37;17.23;;;12.45;;
51724;SDS011;37801;53.224;6.552;2022-09-09T07:38:03;18.20;;;12.55;;
51724;SDS011;37801;53.224;6.552;2022-09-09T07:40:32;24.52;;;12.45;;
51724;SDS011;37801;53.224;6.552;2022-09-09T07:42:59;18.88;;;12.15;;
51724;SDS011;37801;53.224;6.552;2022-09-09T07:45:25;19.92;;;12.25;;
51724;SDS011;37801;53.224;6.552;2022-09-09T07:47:53;18.55;;;12.30;;
51724;SDS011;37801;53.224;6.552;2022-09-09T07:50:22;17.00;;;12.30;;
51724;SDS011;37801;53.224;6.552;2022-09-09T07:52:48;18.20;;;12.10;;
51724;SDS011;37801;53.224;6.552;2022-09-09T07:55:15;18.77;;;11.85;;
51724;SDS011;37801;53.224;6.552;2022-09-09T07:57:41;20.67;;;12.07;;
51724;SDS011;37801;53.224;6.552;2022-09-09T08:00:07;19.25;;;12.13;;
51724;SDS011;37801;53.224;6.552;2022-09-09T08:02:33;17.35;;;12.30;;
51724;SDS011;37801;53.224;6.552;2022-09-09T08:04:59;17.58;;;11.82;;
51724;SDS011;37801;53.224;6.552;2022-09-09T08:07:24;18.35;;;12.15;;
51724;SDS011;37801;53.224;6.552;2022-09-09T08:09:51;18.00;;;11.80;;
51724;SDS011;37801;53.224;6.552;2022-09-09T08:12:16;18.40;;;11.88;;
51724;SDS011;37801;53.224;6.552;2022-09-09T08:14:43;19.10;;;11.70;;
51724;SDS011;37801;53.224;6.552;2022-09-09T08:17:09;14.30;;;10.70;;
51724;SDS011;37801;53.224;6.552;2022-09-09T08:19:34;19.45;;;11.38;;
51724;SDS011;37801;53.224;6.552;2022-09-09T08:22:01;19.30;;;11.07;;
51724;SDS011;37801;53.224;6.552;2022-09-09T08:24:28;14.60;;;10.43;;
51724;SDS011;37801;53.224;6.552;2022-09-09T08:26:54;18.25;;;10.95;;
51724;SDS011;37801;53.224;6.552;2022-09-09T08:29:21;17.95;;;10.95;;
51724;SDS011;37801;53.224;6.552;2022-09-09T08:31:49;16.73;;;11.07;;
51724;SDS011;37801;53.224;6.552;2022-09-09T08:34:22;16.10;;;11.18;;
51724;SDS011;37801;53.224;6.552;2022-09-09T08:36:51;21.48;;;11.52;;
51724;SDS011;37801;53.224;6.552;2022-09-09T08:39:18;17.13;;;10.85;;
51724;SDS011;37801;53.224;6.552;2022-09-09T08:42:05;16.73;;;11.23;;
51724;SDS011;37801;53.224;6.552;2022-09-09T08:47:20;18.48;;;10.82;;
51724;SDS011;37801;53.224;6.552;2022-09-09T08:55:38;16.27;;;10.57;;
51724;SDS011;37801;53.224;6.552;2022-09-09T08:58:21;16.67;;;10.38;;
51724;SDS011;37801;53.224;6.552;2022-09-09T09:06:26;14.45;;;8.85;;
51724;SDS011;37801;53.224;6.552;2022-09-09T09:11:40;14.20;;;9.85;;
51724;SDS011;37801;53.224;6.552;2022-09-09T09:14:18;13.27;;;9.05;;
51724;SDS011;37801;53.224;6.552;2022-09-09T09:19:29;16.60;;;10.82;;
51724;SDS011;37801;53.224;6.552;2022-09-09T09:27:31;16.10;;;9.77;;
51724;SDS011;37801;53.224;6.552;2022-09-09T09:29:59;15.70;;;10.65;;
51724;SDS011;37801;53.224;6.552;2022-09-09T09:32:26;18.95;;;11.07;;
51724;SDS011;37801;53.224;6.552;2022-09-09T09:34:56;16.95;;;11.82;;
51724;SDS011;37801;53.224;6.552;2022-09-09T09:37:28;16.60;;;11.38;;
51724;SDS011;37801;53.224;6.552;2022-09-09T09:39:56;20.65;;;11.23;;
51724;SDS011;37801;53.224;6.552;2022-09-09T09:42:32;15.35;;;10.63;;
51724;SDS011;37801;53.224;6.552;2022-09-09T09:45:07;17.20;;;10.73;;
51724;SDS011;37801;53.224;6.552;2022-09-09T09:50:29;17.70;;;10.90;;
51724;SDS011;37801;53.224;6.552;2022-09-09T09:52:57;16.20;;;11.05;;
51724;SDS011;37801;53.224;6.552;2022-09-09T09:55:31;14.65;;;11.32;;
51724;SDS011;37801;53.224;6.552;2022-09-09T09:58:00;16.35;;;9.63;;
51724;SDS011;37801;53.224;6.552;2022-09-09T10:00:30;13.57;;;9.18;;
51724;SDS011;37801;53.224;6.552;2022-09-09T10:02:59;13.40;;;8.57;;
51724;SDS011;37801;53.224;6.552;2022-09-09T10:05:26;14.30;;;8.45;;
51724;SDS011;37801;53.224;6.552;2022-09-09T10:16:55;14.27;;;8.15;;
51724;SDS011;37801;53.224;6.552;2022-09-09T10:19:32;12.52;;;7.75;;
51724;SDS011;37801;53.224;6.552;2022-09-09T10:25:00;16.27;;;7.40;;
51724;SDS011;37801;53.224;6.552;2022-09-09T10:30:53;10.45;;;5.40;;
51724;SDS011;37801;53.224;6.552;2022-09-09T10:33:20;13.35;;;5.60;;
51724;SDS011;37801;53.224;6.552;2022-09-09T10:38:46;10.63;;;4.90;;
51724;SDS011;37801;53.224;6.552;2022-09-09T10:41:19;16.90;;;6.05;;
51724;SDS011;37801;53.224;6.552;2022-09-09T10:46:29;11.85;;;5.15;;
51724;SDS011;37801;53.224;6.552;2022-09-09T10:51:50;8.73;;;4.00;;
51724;SDS011;37801;53.224;6.552;2022-09-09T10:54:32;8.90;;;3.55;;
51724;SDS011;37801;53.224;6.552;2022-09-09T10:59:52;7.93;;;3.93;;
51724;SDS011;37801;53.224;6.552;2022-09-09T11:02:26;10.77;;;4.70;;
51724;SDS011;37801;53.224;6.552;2022-09-09T11:07:28;9.45;;;4.30;;
51724;SDS011;37801;53.224;6.552;2022-09-09T11:10:02;10.95;;;4.90;;
51724;SDS011;37801;53.224;6.552;2022-09-09T11:12:32;8.65;;;4.07;;
51724;SDS011;37801;53.224;6.552;2022-09-09T11:15:09;8.98;;;3.92;;
51724;SDS011;37801;53.224;6.552;2022-09-09T11:17:46;13.00;;;4.30;;
51724;SDS011;37801;53.224;6.552;2022-09-09T11:20:15;7.82;;;3.03;;
51724;SDS011;37801;53.224;6.552;2022-09-09T11:22:52;9.68;;;3.22;;
51724;SDS011;37801;53.224;6.552;2022-09-09T11:25:48;4.82;;;2.78;;
51724;SDS011;37801;53.224;6.552;2022-09-09T11:31:07;6.47;;;2.45;;
51724;SDS011;37801;53.224;6.552;2022-09-09T11:33:41;5.85;;;2.83;;
51724;SDS011;37801;53.224;6.552;2022-09-09T11:44:44;6.63;;;2.92;;
51724;SDS011;37801;53.224;6.552;2022-09-09T11:47:24;8.35;;;3.70;;
51724;SDS011;37801;53.224;6.552;2022-09-09T11:52:40;9.50;;;3.88;;
51724;SDS011;37801;53.224;6.552;2022-09-09T11:55:29;9.43;;;3.60;;
51724;SDS011;37801;53.224;6.552;2022-09-09T11:58:22;11.70;;;3.60;;
51724;SDS011;37801;53.224;6.552;2022-09-09T12:00:47;6.38;;;3.72;;
51724;SDS011;37801;53.224;6.552;2022-09-09T12:06:07;9.57;;;4.10;;
51724;SDS011;37801;53.224;6.552;2022-09-09T12:08:45;11.95;;;4.03;;
51724;SDS011;37801;53.224;6.552;2022-09-09T12:11:26;11.75;;;3.97;;
51724;SDS011;37801;53.224;6.552;2022-09-09T12:13:56;7.28;;;3.25;;
51724;SDS011;37801;53.224;6.552;2022-09-09T12:16:34;8.48;;;3.28;;
51724;SDS011;37801;53.224;6.552;2022-09-09T12:19:24;9.88;;;3.53;;
51724;SDS011;37801;53.224;6.552;2022-09-09T12:21:58;8.07;;;3.35;;
51724;SDS011;37801;53.224;6.552;2022-09-09T12:24:40;7.40;;;3.42;;
51724;SDS011;37801;53.224;6.552;2022-09-09T12:27:42;9.07;;;3.67;;
51724;SDS011;37801;53.224;6.552;2022-09-09T12:30:17;9.65;;;3.88;;
51724;SDS011;37801;53.224;6.552;2022-09-09T12:32:43;10.07;;;3.80;;
51724;SDS011;37801;53.224;6.552;2022-09-09T12:35:21;9.13;;;3.40;;
51724;SDS011;37801;53.224;6.552;2022-09-09T12:37:52;10.52;;;3.38;;
51724;SDS011;37801;53.224;6.552;2022-09-09T12:40:31;10.77;;;2.97;;
51724;SDS011;37801;53.224;6.552;2022-09-09T12:43:00;10.32;;;3.05;;
51724;SDS011;37801;53.224;6.552;2022-09-09T12:45:31;7.55;;;2.63;;
51724;SDS011;37801;53.224;6.552;2022-09-09T12:50:31;7.30;;;2.83;;
51724;SDS011;37801;53.224;6.552;2022-09-09T12:53:30;9.07;;;3.05;;
51724;SDS011;37801;53.224;6.552;2022-09-09T12:55:57;5.78;;;2.80;;
51724;SDS011;37801;53.224;6.552;2022-09-09T12:58:27;7.47;;;2.88;;
51724;SDS011;37801;53.224;6.552;2022-09-09T13:00:58;8.15;;;2.55;;
51724;SDS011;37801;53.224;6.552;2022-09-09T13:03:25;7.63;;;3.17;;
51724;SDS011;37801;53.224;6.552;2022-09-09T13:05:51;6.82;;;2.80;;
51724;SDS011;37801;53.224;6.552;2022-09-09T13:08:18;7.00;;;2.90;;
51724;SDS011;37801;53.224;6.552;2022-09-09T13:10:51;7.03;;;2.40;;
51724;SDS011;37801;53.224;6.552;2022-09-09T13:16:28;9.50;;;2.92;;
51724;SDS011;37801;53.224;6.552;2022-09-09T13:18:57;9.20;;;2.83;;
51724;SDS011;37801;53.224;6.552;2022-09-09T13:21:34;9.82;;;2.70;;
51724;SDS011;37801;53.224;6.552;2022-09-09T13:24:03;7.45;;;2.47;;
51724;SDS011;37801;53.224;6.552;2022-09-09T13:26:32;8.10;;;2.92;;
51724;SDS011;37801;53.224;6.552;2022-09-09T13:29:18;5.50;;;2.42;;
51724;SDS011;37801;53.224;6.552;2022-09-09T13:31:44;7.95;;;2.92;;
51724;SDS011;37801;53.224;6.552;2022-09-09T13:34:11;7.38;;;2.92;;
51724;SDS011;37801;53.224;6.552;2022-09-09T13:36:52;4.88;;;2.30;;
51724;SDS011;37801;53.224;6.552;2022-09-09T13:39:33;6.82;;;2.30;;
51724;SDS011;37801;53.224;6.552;2022-09-09T13:42:01;8.50;;;2.53;;
51724;SDS011;37801;53.224;6.552;2022-09-09T13:44:30;7.88;;;2.58;;
51724;SDS011;37801;53.224;6.552;2022-09-09T13:49:31;5.38;;;2.40;;
51724;SDS011;37801;53.224;6.552;2022-09-09T13:52:17;9.27;;;2.80;;
51724;SDS011;37801;53.224;6.552;2022-09-09T13:54:50;9.15;;;3.00;;
51724;SDS011;37801;53.224;6.552;2022-09-09T13:57:17;6.60;;;2.40;;
51724;SDS011;37801;53.224;6.552;2022-09-09T13:59:46;7.35;;;2.33;;
51724;SDS011;37801;53.224;6.552;2022-09-09T14:02:12;7.18;;;2.53;;
51724;SDS011;37801;53.224;6.552;2022-09-09T14:04:39;4.57;;;2.22;;
51724;SDS011;37801;53.224;6.552;2022-09-09T14:07:08;4.32;;;1.95;;
51724;SDS011;37801;53.224;6.552;2022-09-09T14:09:41;6.25;;;2.00;;
51724;SDS011;37801;53.224;6.552;2022-09-09T14:12:11;7.57;;;2.33;;
51724;SDS011;37801;53.224;6.552;2022-09-09T14:14:37;4.10;;;1.75;;
51724;SDS011;37801;53.224;6.552;2022-09-09T14:17:03;5.20;;;1.60;;
51724;SDS011;37801;53.224;6.552;2022-09-09T14:19:29;4.85;;;1.65;;
51724;SDS011;37801;53.224;6.552;2022-09-09T14:21:56;7.78;;;2.08;;
51724;SDS011;37801;53.224;6.552;2022-09-09T14:24:22;6.30;;;1.48;;
51724;SDS011;37801;53.224;6.552;2022-09-09T14:26:48;4.43;;;1.50;;
51724;SDS011;37801;53.224;6.552;2022-09-09T14:29:14;5.28;;;1.60;;
51724;SDS011;37801;53.224;6.552;2022-09-09T14:31:40;4.85;;;1.65;;
51724;SDS011;37801;53.224;6.552;2022-09-09T14:34:05;3.20;;;1.65;;
51724;SDS011;37801;53.224;6.552;2022-09-09T14:36:31;5.60;;;2.00;;
51724;SDS011;37801;53.224;6.552;2022-09-09T14:38:57;5.88;;;1.63;;
51724;SDS011;37801;53.224;6.552;2022-09-09T14:41:23;3.45;;;1.65;;
51724;SDS011;37801;53.224;6.552;2022-09-09T14:43:50;4.72;;;1.70;;
51724;SDS011;37801;53.224;6.552;2022-09-09T14:46:17;3.92;;;1.60;;
51724;SDS011;37801;53.224;6.552;2022-09-09T14:48:44;4.35;;;1.40;;
51724;SDS011;37801;53.224;6.552;2022-09-09T14:51:17;3.80;;;1.15;;
51724;SDS011;37801;53.224;6.552;2022-09-09T14:53:53;3.13;;;1.10;;
51724;SDS011;37801;53.224;6.552;2022-09-09T14:56:21;3.03;;;1.17;;
51724;SDS011;37801;53.224;6.552;2022-09-09T14:58:49;2.50;;;0.93;;
51724;SDS011;37801;53.224;6.552;2022-09-09T15:01:17;2.97;;;1.10;;
51724;SDS011;37801;53.224;6.552;2022-09-09T15:03:52;4.60;;;2.42;;
51724;SDS011;37801;53.224;6.552;2022-09-09T15:06:20;5.15;;;2.80;;
51724;SDS011;37801;53.224;6.552;2022-09-09T15:08:47;2.67;;;1.70;;
51724;SDS011;37801;53.224;6.552;2022-09-09T15:11:15;2.75;;;1.33;;
51724;SDS011;37801;53.224;6.552;2022-09-09T15:13:41;3.58;;;1.70;;
51724;SDS011;37801;53.224;6.552;2022-09-09T15:16:12;4.05;;;1.42;;
51724;SDS011;37801;53.224;6.552;2022-09-09T15:18:39;3.65;;;1.17;;
51724;SDS011;37801;53.224;6.552;2022-09-09T15:21:08;5.10;;;1.42;;
51724;SDS011;37801;53.224;6.552;2022-09-09T15:23:38;3.58;;;1.42;;
51724;SDS011;37801;53.224;6.552;2022-09-09T15:26:04;5.43;;;1.60;;
51724;SDS011;37801;53.224;6.552;2022-09-09T15:28:31;4.57;;;1.60;;
51724;SDS011;37801;53.224;6.552;2022-09-09T15:31:06;3.83;;;1.40;;
51724;SDS011;37801;53.224;6.552;2022-09-09T15:33:34;6.40;;;1.95;;
51724;SDS011;37801;53.224;6.552;2022-09-09T15:37:03;6.90;;;1.88;;
51724;SDS011;37801;53.224;6.552;2022-09-09T15:39:00;4.15;;;1.45;;
51724;SDS011;37801;53.224;6.552;2022-09-09T15:41:27;6.68;;;2.20;;
51724;SDS011;37801;53.224;6.552;2022-09-09T15:43:54;4.25;;;1.83;;
51724;SDS011;37801;53.224;6.552;2022-09-09T15:46:29;4.10;;;1.70;;
51724;SDS011;37801;53.224;6.552;2022-09-09T15:49:05;3.90;;;1.73;;
51724;SDS011;37801;53.224;6.552;2022-09-09T15:51:36;5.18;;;1.60;;
51724;SDS011;37801;53.224;6.552;2022-09-09T15:54:03;5.28;;;1.77;;
51724;SDS011;37801;53.224;6.552;2022-09-09T15:56:29;5.32;;;1.67;;
51724;SDS011;37801;53.224;6.552;2022-09-09T15:58:56;4.70;;;1.67;;
51724;SDS011;37801;53.224;6.552;2022-09-09T16:01:22;5.07;;;1.70;;
51724;SDS011;37801;53.224;6.552;2022-09-09T16:03:48;3.38;;;1.30;;
51724;SDS011;37801;53.224;6.552;2022-09-09T16:06:19;4.65;;;1.30;;
51724;SDS011;37801;53.224;6.552;2022-09-09T16:08:47;6.03;;;1.60;;
51724;SDS011;37801;53.224;6.552;2022-09-09T16:13:45;2.63;;;1.40;;
51724;SDS011;37801;53.224;6.552;2022-09-09T16:16:14;3.22;;;1.20;;
51724;SDS011;37801;53.224;6.552;2022-09-09T16:18:45;3.17;;;1.48;;
51724;SDS011;37801;53.224;6.552;2022-09-09T16:21:19;3.75;;;1.63;;
51724;SDS011;37801;53.224;6.552;2022-09-09T16:23:47;3.92;;;1.98;;
51724;SDS011;37801;53.224;6.552;2022-09-09T16:26:15;3.28;;;1.90;;
51724;SDS011;37801;53.224;6.552;2022-09-09T16:28:42;5.32;;;1.95;;
51724;SDS011;37801;53.224;6.552;2022-09-09T16:31:09;5.20;;;1.70;;
51724;SDS011;37801;53.224;6.552;2022-09-09T16:33:39;4.10;;;1.60;;
51724;SDS011;37801;53.224;6.552;2022-09-09T16:36:07;4.00;;;1.58;;
51724;SDS011;37801;53.224;6.552;2022-09-09T16:38:35;3.60;;;1.50;;
51724;SDS011;37801;53.224;6.552;2022-09-09T16:41:02;3.58;;;1.70;;
51724;SDS011;37801;53.224;6.552;2022-09-09T16:43:31;5.65;;;1.98;;
51724;SDS011;37801;53.224;6.552;2022-09-09T16:45:57;5.15;;;1.80;;
51724;SDS011;37801;53.224;6.552;2022-09-09T16:48:26;4.78;;;1.80;;
51724;SDS011;37801;53.224;6.552;2022-09-09T16:51:05;4.15;;;1.90;;
51724;SDS011;37801;53.224;6.552;2022-09-09T16:53:33;4.28;;;1.85;;
51724;SDS011;37801;53.224;6.552;2022-09-09T16:56:06;3.13;;;1.63;;
51724;SDS011;37801;53.224;6.552;2022-09-09T16:58:32;4.85;;;1.77;;
51724;SDS011;37801;53.224;6.552;2022-09-09T17:00:59;4.78;;;1.90;;